LEXJ/SDR METAR and TAF weather

Enter ICAO airport designator
Station Type Date Time Source
LEXJ METAR 2020/02/20 17:00 UTC NOAA

LEXJ 201700Z VRB01KT CAVOK 13/07 Q1027


Station Type Date Time Source
LEXJ Decoded METAR 2020/02/20 17:00 UTC NOAA

Santander / Parayas, Spain (LEXJ) 43-26N 003-49W 9M
Feb 20, 2020 - 12:00 PM EST / 2020.02.20 1700 UTC
Wind: Variable at 1 MPH (1 KT):0
Visibility: greater than 7 mile(s):0
Temperature: 55 F (13 C)
Dew Point: 44 F (7 C)
Relative Humidity: 66%
Pressure (altimeter): 30.33 in. Hg (1027 hPa)
ob: LEXJ 201700Z VRB01KT CAVOK 13/07 Q1027
cycle: 17

Station Type Date Time Source
LEXJ TAF 2020/02/20 15:30 UTC NOAA

TAF LEXJ 201400Z 2015/2115 31008KT 9999 SCT030 TX15/2114Z TN07/2106Z PROB30
TEMPO 2022/2103 3000 -RADZ BR BKN012

Example: see airport list